Time;durP1;ratioP1;P1;durP2;ratioP2;P2;SDS_P1;SDS_P2;PMS_P1;PMS_P2;Temp;Humidity;BMP_temperature;BMP_pressure;BME280_temperature;BME280_humidity;BME280_pressure;Samples;Min_cycle;Max_cycle;Signal;HPM_P1;HPM_P2
2021/03/24 00:00:17;;;;;;;87.30;37.73;;;6.10;99.90;;;;;;5073108;28;20212;-76
2021/03/24 00:02:44;;;;;;;89.87;37.37;;;6.20;99.90;;;;;;5072755;28;20288;-78
2021/03/24 00:05:13;;;;;;;91.97;38.07;;;6.20;99.90;;;;;;5073151;28;20344;-79
2021/03/24 00:07:40;;;;;;;86.13;37.30;;;6.20;99.90;;;;;;5070396;28;20659;-78
2021/03/24 00:10:08;;;;;;;87.30;37.30;;;6.20;99.90;;;;;;5073004;28;20233;-78
2021/03/24 00:12:35;;;;;;;95.27;39.03;;;6.20;99.90;;;;;;5072298;28;20713;-79
2021/03/24 00:15:01;;;;;;;86.70;37.57;;;6.20;99.90;;;;;;5070677;28;20562;-78
2021/03/24 00:17:27;;;;;;;85.30;36.30;;;6.10;99.90;;;;;;5072408;28;20202;-76
2021/03/24 00:19:54;;;;;;;93.80;39.03;;;6.10;99.90;;;;;;5072790;28;20290;-83
2021/03/24 00:22:21;;;;;;;91.30;38.43;;;6.10;99.90;;;;;;5072644;28;20193;-77
2021/03/24 00:24:47;;;;;;;89.07;37.97;;;6.10;99.90;;;;;;5072687;28;20211;-77
2021/03/24 00:27:14;;;;;;;85.93;36.83;;;6.10;99.90;;;;;;5072292;28;20193;-78
2021/03/24 00:29:40;;;;;;;99.47;39.23;;;6.10;99.90;;;;;;5072050;28;20676;-78
2021/03/24 00:32:07;;;;;;;92.77;38.07;;;6.00;99.90;;;;;;5072393;28;20288;-80
2021/03/24 00:34:34;;;;;;;90.50;37.87;;;5.90;99.90;;;;;;5071970;28;20213;-78
2021/03/24 00:37:00;;;;;;;93.50;39.57;;;5.90;99.90;;;;;;5072716;28;20228;-79
2021/03/24 00:39:28;;;;;;;96.77;40.17;;;5.90;99.90;;;;;;5072495;28;20299;-80
2021/03/24 00:41:54;;;;;;;106.43;40.33;;;5.90;99.90;;;;;;5072031;28;20200;-79
2021/03/24 00:44:20;;;;;;;99.27;40.00;;;5.80;99.90;;;;;;5071818;28;20197;-78
2021/03/24 00:46:47;;;;;;;88.73;38.93;;;5.80;99.90;;;;;;5072301;28;20655;-79
2021/03/24 00:49:13;;;;;;;103.00;41.93;;;5.70;99.90;;;;;;5071940;28;20311;-77
2021/03/24 00:51:40;;;;;;;102.13;42.60;;;5.60;99.90;;;;;;5072297;28;20287;-77
2021/03/24 00:54:06;;;;;;;96.30;39.73;;;5.60;99.90;;;;;;5072071;28;20228;-80
2021/03/24 00:56:33;;;;;;;110.53;42.73;;;5.60;99.90;;;;;;5072330;28;20206;-79
2021/03/24 00:59:00;;;;;;;107.97;41.83;;;5.60;99.90;;;;;;5072172;28;20205;-76
2021/03/24 01:01:26;;;;;;;107.10;42.43;;;5.70;99.90;;;;;;5072407;28;20232;-78
2021/03/24 01:03:52;;;;;;;108.83;43.73;;;5.70;99.90;;;;;;5072067;28;20202;-76
2021/03/24 01:06:19;;;;;;;108.93;42.33;;;5.70;99.90;;;;;;5069206;28;20296;-77
2021/03/24 01:08:45;;;;;;;99.97;41.63;;;5.70;99.90;;;;;;5071747;28;20221;-80
2021/03/24 01:11:11;;;;;;;106.47;41.93;;;5.70;99.90;;;;;;5072299;28;20284;-81
2021/03/24 01:13:39;;;;;;;93.37;40.43;;;5.70;99.90;;;;;;5069331;28;20280;-80
2021/03/24 01:16:06;;;;;;;95.47;39.87;;;5.70;99.90;;;;;;5071771;28;20201;-79
2021/03/24 01:18:32;;;;;;;93.47;40.27;;;5.60;99.90;;;;;;5072222;28;20288;-81
2021/03/24 01:20:58;;;;;;;98.50;40.87;;;5.70;99.90;;;;;;5070801;28;20301;-81
2021/03/24 01:23:25;;;;;;;97.23;40.20;;;5.80;99.90;;;;;;5071750;28;20292;-80
2021/03/24 01:25:51;;;;;;;93.77;38.13;;;5.70;99.90;;;;;;5072129;28;20208;-81
2021/03/24 01:28:20;;;;;;;93.27;38.33;;;5.70;99.90;;;;;;5071734;28;20232;-76
2021/03/24 01:30:47;;;;;;;102.37;39.43;;;5.70;99.90;;;;;;5071515;28;20282;-78
2021/03/24 01:33:14;;;;;;;92.20;39.57;;;5.70;99.90;;;;;;5071993;28;20632;-78
2021/03/24 01:35:41;;;;;;;107.17;41.40;;;5.80;99.90;;;;;;5072146;28;20197;-79
2021/03/24 01:38:08;;;;;;;98.67;40.90;;;5.80;99.90;;;;;;5072187;28;20216;-80
2021/03/24 01:40:38;;;;;;;96.70;39.67;;;5.80;99.90;;;;;;5072468;28;20609;-81
2021/03/24 01:43:07;;;;;;;97.13;40.40;;;5.80;99.90;;;;;;5072431;28;20279;-80
2021/03/24 01:46:22;;;;;;;93.33;39.43;;;5.80;99.90;;;;;;5075305;28;20554;-78
2021/03/24 01:48:52;;;;;;;108.47;39.53;;;5.80;99.90;;;;;;5073109;28;20214;-78
2021/03/24 01:51:19;;;;;;;97.23;40.33;;;5.80;99.90;;;;;;5075749;28;20197;-81
2021/03/24 01:53:47;;;;;;;97.40;39.80;;;5.80;99.90;;;;;;5075466;28;20226;-78
2021/03/24 01:56:14;;;;;;;99.97;41.67;;;5.70;99.90;;;;;;5075354;28;20223;-78
2021/03/24 01:58:41;;;;;;;102.20;40.60;;;5.70;99.90;;;;;;5070143;28;20207;-80
2021/03/24 02:01:11;;;;;;;103.50;41.77;;;5.70;99.90;;;;;;5075722;28;20236;-77
2021/03/24 02:03:37;;;;;;;101.37;43.17;;;5.80;99.90;;;;;;5075721;28;20607;-77
2021/03/24 02:06:16;;;;;;;99.97;40.07;;;5.80;99.90;;;;;;5067717;28;20210;-76
2021/03/24 02:08:47;;;;;;;103.60;41.33;;;5.80;99.90;;;;;;5071226;28;20293;-80
2021/03/24 02:11:20;;;;;;;102.67;43.33;;;5.80;99.90;;;;;;5075602;28;20281;-79
2021/03/24 02:13:52;;;;;;;103.90;43.40;;;5.80;99.90;;;;;;5075426;28;20209;-77
2021/03/24 02:16:24;;;;;;;108.47;41.53;;;5.80;99.90;;;;;;5075488;28;20284;-76
2021/03/24 02:18:54;;;;;;;98.40;41.27;;;5.80;99.90;;;;;;5075169;28;20627;-78
2021/03/24 02:21:25;;;;;;;108.77;41.07;;;5.80;99.90;;;;;;5075476;28;20301;-78
2021/03/24 02:24:00;;;;;;;101.07;42.43;;;5.70;99.90;;;;;;5075075;28;20278;-77
2021/03/24 02:26:38;;;;;;;104.60;41.47;;;5.60;99.90;;;;;;5075358;28;20284;-78
2021/03/24 02:29:09;;;;;;;107.73;43.00;;;5.50;99.90;;;;;;5075007;28;20271;-78
2021/03/24 02:31:35;;;;;;;108.47;42.53;;;5.40;99.90;;;;;;5074925;28;20205;-78
2021/03/24 02:34:05;;;;;;;101.53;42.33;;;5.50;99.90;;;;;;5075176;28;20345;-79
2021/03/24 02:36:33;;;;;;;106.13;42.60;;;5.40;99.90;;;;;;5075656;28;20197;-79
2021/03/24 02:39:03;;;;;;;111.03;43.90;;;5.40;99.90;;;;;;5075108;28;20295;-82
2021/03/24 02:41:31;;;;;;;109.60;44.07;;;5.40;99.90;;;;;;5060771;28;20208;-78
2021/03/24 02:43:58;;;;;;;112.10;43.67;;;5.40;99.90;;;;;;5074798;28;20209;-82
2021/03/24 02:46:26;;;;;;;110.30;43.70;;;5.40;99.90;;;;;;5074964;28;20203;-80
2021/03/24 02:48:53;;;;;;;117.23;44.17;;;5.30;99.90;;;;;;5075051;28;20224;-78
2021/03/24 02:51:23;;;;;;;108.20;44.50;;;5.40;99.90;;;;;;5075322;28;20219;-81
2021/03/24 02:53:50;;;;;;;103.23;42.87;;;5.50;99.90;;;;;;5074748;28;20224;-78
2021/03/24 02:56:17;;;;;;;103.23;43.03;;;5.60;99.90;;;;;;5073295;28;20304;-78
2021/03/24 02:58:43;;;;;;;108.47;42.97;;;5.60;99.90;;;;;;5075038;28;20236;-79
2021/03/24 03:01:16;;;;;;;105.33;43.17;;;5.60;99.90;;;;;;5074698;28;20291;-79
2021/03/24 03:03:47;;;;;;;103.43;42.47;;;5.70;99.90;;;;;;5071298;28;20227;-76
2021/03/24 03:06:16;;;;;;;102.83;43.33;;;5.70;99.90;;;;;;5074881;28;20208;-81
2021/03/24 03:08:46;;;;;;;99.70;41.97;;;5.70;99.90;;;;;;5074490;28;20322;-78
2021/03/24 03:11:20;;;;;;;97.13;41.27;;;5.70;99.90;;;;;;5074777;28;20331;-77
2021/03/24 03:13:52;;;;;;;98.27;41.57;;;5.70;99.90;;;;;;5074249;28;20610;-79
2021/03/24 03:16:24;;;;;;;103.03;42.20;;;5.70;99.90;;;;;;5074647;28;20274;-78
2021/03/24 03:18:55;;;;;;;104.50;42.00;;;5.80;99.90;;;;;;5074078;28;20735;-78
2021/03/24 03:21:25;;;;;;;95.30;42.10;;;5.80;99.90;;;;;;5074127;28;20202;-79
2021/03/24 03:23:52;;;;;;;93.57;39.47;;;5.80;99.90;;;;;;5072353;28;20727;-81
2021/03/24 03:26:22;;;;;;;100.40;41.53;;;5.90;99.90;;;;;;5074295;28;20679;-78
2021/03/24 03:28:51;;;;;;;95.77;40.50;;;5.90;99.90;;;;;;5074001;28;20763;-80
2021/03/24 03:31:22;;;;;;;100.83;41.57;;;5.90;99.90;;;;;;5073635;28;20636;-79
2021/03/24 03:33:53;;;;;;;96.27;41.00;;;5.80;99.90;;;;;;5073620;28;20197;-78
2021/03/24 03:36:20;;;;;;;97.67;42.50;;;5.80;99.90;;;;;;5080653;28;20288;-77
2021/03/24 03:38:48;;;;;;;99.67;41.57;;;5.80;99.90;;;;;;5081478;28;20656;-78
2021/03/24 03:41:17;;;;;;;96.10;41.20;;;5.90;99.90;;;;;;5074689;28;20220;-78
2021/03/24 03:43:47;;;;;;;103.30;41.43;;;5.80;99.90;;;;;;5073801;28;20639;-78
2021/03/24 03:46:17;;;;;;;95.57;40.83;;;5.80;99.90;;;;;;5073861;28;20303;-81
2021/03/24 03:48:45;;;;;;;96.80;41.03;;;5.80;99.90;;;;;;5073899;28;20228;-78
2021/03/24 03:51:23;;;;;;;97.17;41.13;;;5.80;99.90;;;;;;5073280;28;20201;-81
2021/03/24 03:53:54;;;;;;;91.83;41.30;;;5.80;99.90;;;;;;5073929;28;20299;-79
2021/03/24 03:56:31;;;;;;;100.63;42.17;;;5.90;99.90;;;;;;5073159;28;20573;-81
2021/03/24 03:59:15;;;;;;;97.13;41.67;;;5.90;99.90;;;;;;5073457;28;20199;-79
2021/03/24 04:05:07;;;;;;;98.27;41.00;;;5.80;99.90;;;;;;5068339;28;20193;-78
2021/03/24 04:07:38;;;;;;;98.57;41.77;;;5.80;99.90;;;;;;5072556;28;20201;-77
2021/03/24 04:10:06;;;;;;;90.00;40.40;;;5.90;99.90;;;;;;5072864;28;20226;-78
2021/03/24 04:12:37;;;;;;;90.63;40.40;;;5.80;99.90;;;;;;5073228;28;20215;-79
2021/03/24 04:15:06;;;;;;;98.07;40.93;;;5.80;99.90;;;;;;5072942;28;20664;-79
2021/03/24 04:17:40;;;;;;;102.77;41.63;;;5.80;99.90;;;;;;5073239;28;20211;-78
2021/03/24 04:20:08;;;;;;;94.03;41.20;;;5.70;99.90;;;;;;5074424;28;20221;-77
2021/03/24 04:22:37;;;;;;;100.73;43.07;;;5.70;99.90;;;;;;5085006;28;20284;-79
2021/03/24 04:25:05;;;;;;;94.67;42.20;;;5.80;99.90;;;;;;5084735;28;20203;-77
2021/03/24 04:27:35;;;;;;;101.40;42.87;;;5.80;99.90;;;;;;5074925;28;20207;-79
2021/03/24 04:30:07;;;;;;;106.60;44.07;;;5.80;99.90;;;;;;5092961;28;20617;-78
2021/03/24 04:32:33;;;;;;;95.67;42.57;;;5.90;99.90;;;;;;5089592;28;20726;-78
2021/03/24 04:35:00;;;;;;;96.10;41.23;;;5.90;99.90;;;;;;5084554;28;20254;-78
2021/03/24 04:37:31;;;;;;;99.07;43.90;;;5.80;99.90;;;;;;5089483;28;20292;-78
2021/03/24 04:40:02;;;;;;;100.03;41.80;;;5.90;99.90;;;;;;5092311;28;20508;-78
2021/03/24 04:42:34;;;;;;;100.17;41.30;;;5.80;99.90;;;;;;5090515;28;20283;-80
2021/03/24 04:45:14;;;;;;;105.67;43.90;;;5.80;99.90;;;;;;5092765;28;20629;-80
2021/03/24 04:47:45;;;;;;;103.37;42.83;;;5.70;99.90;;;;;;5089725;28;20202;-81
2021/03/24 04:50:21;;;;;;;109.70;45.17;;;5.70;99.90;;;;;;5092737;28;20387;-78
2021/03/24 04:52:49;;;;;;;102.90;43.33;;;5.70;99.90;;;;;;5084972;28;20222;-77
2021/03/24 04:55:22;;;;;;;103.07;43.20;;;5.60;99.90;;;;;;5088496;28;20294;-78
2021/03/24 04:57:49;;;;;;;100.90;42.63;;;5.50;99.90;;;;;;5091440;28;20670;-78
2021/03/24 05:00:28;;;;;;;113.60;43.53;;;5.60;99.90;;;;;;5093090;28;20243;-80
2021/03/24 05:02:59;;;;;;;111.93;43.17;;;5.60;99.90;;;;;;5086760;28;20566;-77
2021/03/24 05:05:29;;;;;;;104.27;44.47;;;5.60;99.90;;;;;;5080315;28;20205;-79
2021/03/24 05:08:00;;;;;;;104.93;43.17;;;5.60;99.90;;;;;;5083560;28;20203;-77
2021/03/24 05:10:30;;;;;;;106.60;44.50;;;5.60;99.90;;;;;;5081869;28;20233;-77
2021/03/24 05:13:03;;;;;;;109.43;45.33;;;5.60;99.90;;;;;;5083672;28;20215;-79
2021/03/24 05:15:34;;;;;;;100.17;42.63;;;5.60;99.90;;;;;;5093277;28;20204;-78
2021/03/24 05:18:03;;;;;;;112.33;44.17;;;5.70;99.90;;;;;;5084072;28;20208;-78
2021/03/24 05:20:36;;;;;;;110.17;43.57;;;5.60;99.90;;;;;;5091218;28;20294;-79
2021/03/24 05:23:06;;;;;;;116.75;54.85;;;5.60;99.90;;;;;;5095213;28;20515;-79
2021/03/24 05:25:37;;;;;;;108.97;45.53;;;5.40;99.90;;;;;;5092824;28;20228;-78
2021/03/24 05:28:08;;;;;;;105.53;43.87;;;5.50;99.90;;;;;;5096837;28;20281;-80
2021/03/24 05:30:37;;;;;;;103.10;43.80;;;5.50;99.90;;;;;;5091010;28;20295;-79
2021/03/24 05:33:07;;;;;;;107.90;43.77;;;5.50;99.90;;;;;;5088461;28;20634;-78
2021/03/24 05:35:43;;;;;;;112.57;44.20;;;5.50;99.90;;;;;;5093828;28;20216;-81
2021/03/24 05:38:15;;;;;;;119.47;44.20;;;5.60;99.90;;;;;;5088821;28;20230;-81
2021/03/24 05:40:55;;;;;;;102.67;43.70;;;5.50;99.90;;;;;;5092397;28;20551;-79
2021/03/24 05:43:46;;;;;;;107.30;43.43;;;5.50;99.90;;;;;;5096341;28;20227;-78
2021/03/24 05:46:26;;;;;;;103.03;43.63;;;5.60;99.90;;;;;;5058112;28;20203;-80
2021/03/24 05:49:04;;;;;;;104.50;42.80;;;5.50;99.90;;;;;;5090092;28;20269;-80
2021/03/24 05:51:40;;;;;;;101.87;41.73;;;5.60;99.90;;;;;;5095979;28;20196;-80
2021/03/24 05:54:32;;;;;;;114.10;42.77;;;5.60;99.90;;;;;;5073472;28;20289;-77
2021/03/24 05:57:15;;;;;;;95.43;41.37;;;5.60;99.90;;;;;;5095737;28;20208;-81
2021/03/24 05:59:52;;;;;;;99.37;40.67;;;5.70;99.90;;;;;;5080416;28;20200;-82
2021/03/24 06:02:26;;;;;;;99.53;40.73;;;5.70;99.90;;;;;;5094810;28;20613;-77
2021/03/24 06:04:59;;;;;;;102.67;42.43;;;5.80;99.90;;;;;;5094409;28;20658;-76
2021/03/24 06:07:58;;;;;;;100.50;42.13;;;6.00;99.90;;;;;;5093263;28;20288;-79
2021/03/24 06:10:44;;;;;;;105.37;41.20;;;6.00;99.90;;;;;;5072664;28;20232;-77
2021/03/24 06:13:34;;;;;;;105.37;45.93;;;6.00;99.90;;;;;;5084675;28;20981;-79
2021/03/24 06:16:31;;;;;;;101.43;41.07;;;6.00;99.90;;;;;;5094104;28;20543;-81
2021/03/24 06:19:27;;;;;;;95.70;39.63;;;6.10;99.90;;;;;;5007946;28;20687;-77
2021/03/24 06:22:00;;;;;;;91.63;39.93;;;6.20;99.90;;;;;;5081178;28;20221;-79
2021/03/24 06:24:49;;;;;;;90.27;37.67;;;6.30;99.90;;;;;;5118124;28;20209;-77
2021/03/24 06:27:36;;;;;;;93.67;38.07;;;6.40;99.90;;;;;;5118467;28;20204;-77
2021/03/24 06:30:38;;;;;;;89.47;38.77;;;6.50;99.90;;;;;;5116450;28;20193;-77
2021/03/24 06:33:19;;;;;;;90.17;36.53;;;6.60;99.90;;;;;;5111638;28;20220;-78
2021/03/24 06:36:38;;;;;;;91.17;38.47;;;6.70;99.90;;;;;;5104246;28;20220;-80
2021/03/24 06:39:45;;;;;;;76.97;34.43;;;6.90;99.90;;;;;;5039285;28;20242;-80
2021/03/24 06:42:43;;;;;;;86.00;35.53;;;7.00;99.90;;;;;;5002397;28;20207;-77
2021/03/24 06:45:43;;;;;;;78.17;35.53;;;7.10;99.90;;;;;;5071379;28;20212;-76
2021/03/24 06:48:26;;;;;;;78.20;34.80;;;7.20;99.90;;;;;;5094291;28;20209;-77
2021/03/24 06:51:31;;;;;;;78.67;34.67;;;7.30;99.90;;;;;;5091326;28;20780;-76
2021/03/24 06:54:29;;;;;;;76.57;35.03;;;7.40;99.90;;;;;;5093647;28;20228;-78
2021/03/24 06:57:26;;;;;;;78.03;34.17;;;7.50;99.90;;;;;;5061985;28;20708;-77
2021/03/24 07:00:25;;;;;;;79.63;34.87;;;7.60;99.90;;;;;;5074201;28;20263;-76
2021/03/24 07:03:22;;;;;;;73.33;34.43;;;7.80;99.90;;;;;;5074066;28;20700;-77
2021/03/24 07:06:27;;;;;;;78.87;34.20;;;7.80;99.90;;;;;;5071954;28;20236;-77
2021/03/24 07:09:10;;;;;;;78.63;33.17;;;8.00;99.90;;;;;;5055827;28;20279;-76
2021/03/24 07:12:01;;;;;;;75.93;33.97;;;8.20;99.90;;;;;;5091511;28;20248;-76
2021/03/24 07:15:03;;;;;;;72.40;33.60;;;8.40;99.90;;;;;;5092319;28;20229;-78
2021/03/24 07:18:09;;;;;;;72.93;32.57;;;8.50;99.90;;;;;;5094490;28;20574;-77
2021/03/24 07:20:59;;;;;;;78.67;33.07;;;8.60;99.90;;;;;;5094263;28;20299;-77
2021/03/24 07:23:48;;;;;;;75.07;33.03;;;8.80;99.90;;;;;;5094777;28;20217;-77
2021/03/24 07:26:23;;;;;;;73.70;31.40;;;8.70;99.90;;;;;;5094131;28;20634;-79
2021/03/24 07:29:03;;;;;;;69.67;32.03;;;8.80;99.90;;;;;;5094573;28;20239;-78
2021/03/24 07:31:45;;;;;;;76.73;31.13;;;8.90;99.90;;;;;;5094808;28;20192;-78
2021/03/24 07:34:25;;;;;;;65.83;30.83;;;8.90;99.90;;;;;;5093832;28;20603;-82
2021/03/24 07:37:34;;;;;;;71.87;31.27;;;9.00;99.90;;;;;;5094247;28;20563;-77
2021/03/24 07:40:23;;;;;;;70.93;30.23;;;9.20;99.90;;;;;;5093882;28;20287;-78
2021/03/24 07:43:22;;;;;;;70.73;31.70;;;9.30;99.90;;;;;;5093178;28;20197;-77
2021/03/24 07:46:05;;;;;;;69.40;30.67;;;9.30;99.90;;;;;;5088983;28;20345;-77
2021/03/24 07:48:56;;;;;;;67.23;30.57;;;9.40;99.90;;;;;;5093431;28;20720;-77
2021/03/24 07:51:51;;;;;;;65.17;30.77;;;9.50;99.90;;;;;;5093681;28;20259;-78
2021/03/24 07:54:22;;;;;;;71.37;31.63;;;9.50;99.90;;;;;;5093593;28;20196;-81
2021/03/24 07:56:56;;;;;;;69.87;31.40;;;9.60;99.90;;;;;;5092184;28;20185;-78
2021/03/24 07:59:32;;;;;;;69.93;30.17;;;9.70;99.90;;;;;;5083260;28;20194;-77
2021/03/24 08:02:20;;;;;;;68.50;31.13;;;9.80;99.90;;;;;;5079971;28;20665;-77
2021/03/24 08:05:01;;;;;;;74.93;33.07;;;9.90;99.90;;;;;;5082282;28;20675;-79
2021/03/24 08:07:34;;;;;;;77.40;32.10;;;10.00;99.90;;;;;;5076639;28;20278;-80
2021/03/24 08:10:36;;;;;;;72.27;32.27;;;10.10;99.90;;;;;;5073588;28;20250;-77
2021/03/24 08:13:18;;;;;;;68.47;30.40;;;10.10;99.90;;;;;;5066550;28;20292;-77
2021/03/24 08:15:58;;;;;;;65.17;30.53;;;10.20;99.90;;;;;;5074607;28;20188;-78
2021/03/24 08:18:39;;;;;;;66.30;30.67;;;10.20;99.90;;;;;;5093229;28;20215;-78
2021/03/24 08:21:12;;;;;;;69.57;29.97;;;10.30;99.90;;;;;;5090503;28;20231;-77
2021/03/24 08:23:59;;;;;;;66.83;30.20;;;10.30;99.90;;;;;;5076823;28;20201;-80
2021/03/24 08:26:31;;;;;;;61.13;29.17;;;10.30;99.90;;;;;;5080912;28;20278;-77
2021/03/24 08:29:09;;;;;;;68.10;29.93;;;10.40;99.90;;;;;;5087829;28;20753;-80
2021/03/24 08:31:59;;;;;;;59.70;29.00;;;10.50;99.90;;;;;;5073314;28;20264;-78
2021/03/24 08:34:59;;;;;;;63.73;29.57;;;10.60;99.90;;;;;;5073471;28;20257;-78
2021/03/24 08:38:05;;;;;;;65.40;29.50;;;10.70;99.90;;;;;;5072904;28;20293;-82
2021/03/24 08:41:13;;;;;;;71.43;30.37;;;10.80;99.90;;;;;;5075509;28;20204;-77
2021/03/24 08:43:56;;;;;;;67.40;29.20;;;10.90;99.90;;;;;;5078615;28;20204;-81
2021/03/24 08:46:27;;;;;;;59.50;28.50;;;11.00;99.90;;;;;;5075159;28;20675;-80
2021/03/24 08:48:59;;;;;;;62.33;28.53;;;11.10;99.90;;;;;;5075213;28;20209;-76
2021/03/24 08:51:44;;;;;;;66.27;28.97;;;11.30;99.90;;;;;;5075643;28;20204;-76
2021/03/24 08:54:45;;;;;;;65.77;27.87;;;11.30;99.90;;;;;;5070878;28;20276;-77
2021/03/24 08:57:24;;;;;;;64.63;28.90;;;11.40;99.90;;;;;;5079989;28;20206;-78
2021/03/24 08:59:54;;;;;;;64.60;28.63;;;11.50;99.90;;;;;;5078835;28;20569;-79
2021/03/24 09:02:35;;;;;;;54.50;27.60;;;11.70;99.90;;;;;;5078370;28;20279;-81
2021/03/24 09:05:14;;;;;;;61.63;26.90;;;11.80;99.90;;;;;;5078435;28;20613;-79
2021/03/24 09:08:04;;;;;;;61.93;28.57;;;12.00;99.90;;;;;;5086924;28;20596;-77
2021/03/24 09:10:43;;;;;;;57.57;25.83;;;12.00;99.90;;;;;;5073163;28;20214;-77
2021/03/24 09:13:18;;;;;;;63.70;26.73;;;12.10;99.90;;;;;;5073560;28;20301;-77
2021/03/24 09:16:19;;;;;;;51.90;24.73;;;12.20;99.90;;;;;;5081631;28;20630;-78
2021/03/24 09:18:50;;;;;;;56.13;24.93;;;12.20;99.90;;;;;;5078879;28;20286;-77
2021/03/24 09:21:21;;;;;;;51.80;24.33;;;12.30;99.90;;;;;;5076151;28;20218;-77
2021/03/24 09:24:44;;;;;;;57.17;26.33;;;12.40;99.90;;;;;;5076838;28;20225;-77
2021/03/24 09:27:53;;;;;;;52.63;24.67;;;12.40;99.90;;;;;;5084577;28;20274;-78
2021/03/24 09:30:49;;;;;;;49.70;22.97;;;12.50;99.90;;;;;;5082341;28;20271;-77
2021/03/24 09:33:33;;;;;;;46.40;22.07;;;12.60;99.90;;;;;;5080938;28;20188;-78
2021/03/24 09:36:22;;;;;;;50.83;24.13;;;12.70;99.90;;;;;;5079273;28;20214;-77
2021/03/24 09:38:51;;;;;;;52.60;21.87;;;12.80;99.90;;;;;;5078509;28;20635;-79
2021/03/24 09:41:24;;;;;;;46.67;21.20;;;12.90;99.90;;;;;;5077650;28;20251;-76
2021/03/24 09:43:54;;;;;;;43.90;21.23;;;13.20;99.90;;;;;;5077950;28;20184;-77
2021/03/24 09:46:35;;;;;;;43.87;20.13;;;13.20;99.90;;;;;;5075700;28;20559;-78
2021/03/24 09:49:10;;;;;;;50.43;21.20;;;13.20;99.90;;;;;;5078643;28;20665;-77
2021/03/24 09:51:43;;;;;;;51.40;22.03;;;13.20;99.90;;;;;;5081388;28;20293;-76
2021/03/24 09:54:19;;;;;;;49.27;20.90;;;13.30;99.90;;;;;;5072222;28;20199;-77
2021/03/24 09:56:57;;;;;;;43.70;20.17;;;13.40;99.90;;;;;;5074896;28;20196;-78
2021/03/24 09:59:36;;;;;;;44.80;20.40;;;13.50;99.90;;;;;;5061546;28;20203;-78
2021/03/24 10:02:12;;;;;;;42.63;19.47;;;13.60;99.90;;;;;;5087419;28;20211;-77
2021/03/24 10:04:48;;;;;;;47.53;21.63;;;13.80;99.90;;;;;;5080132;28;20656;-76
2021/03/24 10:07:20;;;;;;;43.10;20.33;;;14.30;99.90;;;;;;5075012;28;20191;-76
2021/03/24 10:10:02;;;;;;;38.13;19.43;;;15.10;99.90;;;;;;5084393;28;20237;-76
2021/03/24 10:12:35;;;;;;;42.03;20.37;;;16.10;99.90;;;;;;5080348;28;20187;-76
2021/03/24 10:15:27;;;;;;;40.87;20.63;;;16.70;99.90;;;;;;5095620;28;20203;-77
2021/03/24 10:18:05;;;;;;;43.53;19.97;;;18.00;99.90;;;;;;5083539;28;20614;-77
2021/03/24 10:20:41;;;;;;;40.77;21.10;;;18.90;99.90;;;;;;5102214;28;20210;-78
2021/03/24 10:23:15;;;;;;;35.93;20.10;;;19.70;99.90;;;;;;5104634;28;20202;-79
2021/03/24 10:25:44;;;;;;;35.70;19.67;;;19.90;99.90;;;;;;5089142;28;20195;-77
2021/03/24 10:28:17;;;;;;;42.53;19.70;;;20.00;99.90;;;;;;5090469;28;20749;-78
2021/03/24 10:30:52;;;;;;;40.37;18.67;;;19.80;99.90;;;;;;5088433;28;20230;-80
2021/03/24 10:33:31;;;;;;;34.77;19.00;;;19.80;99.90;;;;;;5093306;28;20191;-78
2021/03/24 10:36:04;;;;;;;38.73;20.07;;;20.00;99.90;;;;;;5096176;28;20293;-79
2021/03/24 10:38:42;;;;;;;36.53;18.43;;;20.00;99.90;;;;;;5085328;28;20282;-76
2021/03/24 10:41:31;;;;;;;34.63;17.93;;;19.80;99.90;;;;;;5092692;28;20195;-77
2021/03/24 10:44:07;;;;;;;32.87;18.13;;;19.90;99.90;;;;;;5084332;28;20298;-79
2021/03/24 10:46:41;;;;;;;33.60;18.20;;;19.80;99.90;;;;;;5082909;28;20191;-77
2021/03/24 10:49:16;;;;;;;36.07;19.80;;;20.10;99.90;;;;;;5078827;28;20230;-79
2021/03/24 10:51:56;;;;;;;36.10;18.80;;;20.50;99.90;;;;;;5086559;28;20183;-79
2021/03/24 10:54:25;;;;;;;36.17;18.73;;;20.70;99.90;;;;;;5086497;28;20661;-78
2021/03/24 10:57:20;;;;;;;36.80;19.80;;;21.10;99.90;;;;;;5095216;28;20207;-77
2021/03/24 10:59:56;;;;;;;36.37;19.53;;;21.40;99.90;;;;;;5091802;28;20584;-79
2021/03/24 11:02:29;;;;;;;39.50;18.63;;;21.70;99.90;;;;;;5098826;28;20347;-77
2021/03/24 11:05:05;;;;;;;35.97;19.00;;;21.30;99.90;;;;;;5085196;28;20200;-79
2021/03/24 11:07:37;;;;;;;36.97;20.63;;;21.20;99.90;;;;;;5085265;28;20191;-81
2021/03/24 11:10:33;;;;;;;35.93;20.17;;;21.20;99.90;;;;;;5078034;28;20623;-78
2021/03/24 11:13:02;;;;;;;35.63;18.63;;;21.10;99.90;;;;;;5093672;28;20209;-79
2021/03/24 11:15:48;;;;;;;34.53;19.53;;;20.90;99.90;;;;;;5094435;28;20271;-77
2021/03/24 11:18:20;;;;;;;34.60;18.53;;;20.80;99.90;;;;;;5101364;28;20282;-79
2021/03/24 11:20:51;;;;;;;31.97;18.73;;;21.00;99.90;;;;;;5087659;28;20214;-77
2021/03/24 11:23:25;;;;;;;33.03;18.17;;;20.80;99.90;;;;;;5082328;28;20293;-78
2021/03/24 11:25:56;;;;;;;34.30;18.67;;;20.60;99.90;;;;;;5089895;28;20191;-80
2021/03/24 11:28:27;;;;;;;41.17;20.40;;;20.40;99.90;;;;;;5072655;28;20688;-78
2021/03/24 11:31:03;;;;;;;38.03;18.53;;;20.60;99.90;;;;;;5078498;28;20208;-78
2021/03/24 11:33:38;;;;;;;31.73;18.23;;;20.40;99.90;;;;;;5100518;28;20194;-77
2021/03/24 11:36:14;;;;;;;29.90;17.70;;;20.40;99.90;;;;;;5103582;28;20182;-81
2021/03/24 11:38:48;;;;;;;29.63;16.87;;;20.50;99.90;;;;;;5098829;28;20202;-76
2021/03/24 11:41:20;;;;;;;33.33;17.80;;;20.70;99.90;;;;;;5095957;28;20234;-77
2021/03/24 11:43:57;;;;;;;32.43;19.00;;;20.80;99.90;;;;;;5092492;28;20195;-77
2021/03/24 11:46:28;;;;;;;32.83;18.07;;;21.00;99.90;;;;;;5082811;28;20256;-76
2021/03/24 11:49:19;;;;;;;32.87;18.33;;;21.20;99.90;;;;;;5078438;28;20221;-75
2021/03/24 11:52:12;;;;;;;36.37;19.20;;;20.90;99.90;;;;;;5072329;28;20338;-76
2021/03/24 11:54:52;;;;;;;35.13;18.37;;;20.60;99.90;;;;;;5061448;28;20206;-77
2021/03/24 11:57:30;;;;;;;35.17;19.47;;;20.40;99.90;;;;;;5074870;28;20275;-75
2021/03/24 12:00:28;;;;;;;32.23;18.67;;;20.40;99.90;;;;;;5082452;28;20259;-77
2021/03/24 12:03:05;;;;;;;37.33;19.50;;;20.10;99.90;;;;;;5038550;28;20240;-76
2021/03/24 12:05:35;;;;;;;32.23;17.70;;;20.10;99.90;;;;;;5073119;28;20286;-77
2021/03/24 12:08:19;;;;;;;30.10;16.87;;;20.00;99.90;;;;;;5077809;28;20203;-77
2021/03/24 12:10:59;;;;;;;29.10;17.43;;;20.10;99.90;;;;;;5084717;28;20226;-77
2021/03/24 12:13:29;;;;;;;32.23;18.23;;;20.10;99.90;;;;;;5090917;28;20190;-76
2021/03/24 12:16:02;;;;;;;38.93;17.23;;;20.10;99.90;;;;;;5086988;28;20277;-77
2021/03/24 12:18:43;;;;;;;35.33;17.80;;;20.10;99.90;;;;;;5073142;28;20195;-75
2021/03/24 12:21:20;;;;;;;34.60;17.57;;;20.10;99.90;;;;;;5081790;28;20653;-78
2021/03/24 12:23:48;;;;;;;27.73;16.73;;;20.30;99.90;;;;;;5086573;28;20274;-80
2021/03/24 12:26:27;;;;;;;32.27;17.60;;;20.30;99.90;;;;;;5088921;28;20199;-79
2021/03/24 12:29:01;;;;;;;35.33;18.13;;;20.30;99.90;;;;;;5077885;28;20199;-78
2021/03/24 12:31:30;;;;;;;34.77;17.93;;;20.30;99.90;;;;;;5074815;28;20206;-76
2021/03/24 12:33:59;;;;;;;28.57;16.87;;;20.60;99.90;;;;;;5086570;28;20200;-77
2021/03/24 12:36:28;;;;;;;29.37;16.33;;;20.70;99.90;;;;;;5082508;28;20278;-77
2021/03/24 12:39:00;;;;;;;32.50;15.53;;;20.40;99.90;;;;;;5092025;28;20289;-77
2021/03/24 12:41:35;;;;;;;28.97;15.37;;;20.00;99.90;;;;;;5083463;28;20673;-79
2021/03/24 12:44:21;;;;;;;29.00;15.60;;;19.70;99.90;;;;;;5074611;28;20248;-79
2021/03/24 12:46:52;;;;;;;29.10;14.70;;;19.70;99.90;;;;;;5084840;28;20218;-81
2021/03/24 12:49:21;;;;;;;31.60;14.90;;;19.50;99.90;;;;;;5084104;28;20325;-79
2021/03/24 12:51:55;;;;;;;30.57;15.87;;;19.40;99.90;;;;;;5087002;28;20558;-76
2021/03/24 12:54:24;;;;;;;28.70;14.47;;;19.40;99.90;;;;;;5083993;28;20286;-77
2021/03/24 12:57:26;;;;;;;28.20;13.73;;;19.30;99.90;;;;;;5089229;28;20198;-77
2021/03/24 13:00:31;;;;;;;32.50;13.80;;;19.10;99.90;;;;;;5065682;28;20290;-76
2021/03/24 13:03:27;;;;;;;26.40;14.13;;;18.90;99.90;;;;;;5085151;28;20211;-77
2021/03/24 13:06:10;;;;;;;27.33;13.53;;;19.00;99.90;;;;;;5085276;28;20190;-78
2021/03/24 13:08:48;;;;;;;27.87;14.43;;;19.10;99.90;;;;;;5087109;28;20281;-77
2021/03/24 13:11:27;;;;;;;28.10;13.57;;;19.00;99.90;;;;;;5076159;28;20245;-77
2021/03/24 13:14:01;;;;;;;21.93;12.83;;;19.00;99.90;;;;;;5056711;28;20227;-77
2021/03/24 13:16:33;;;;;;;24.07;13.40;;;19.20;99.90;;;;;;5080290;28;20197;-77
2021/03/24 13:19:07;;;;;;;25.50;13.83;;;19.30;99.90;;;;;;5079561;28;20278;-77
2021/03/24 13:21:49;;;;;;;29.00;14.57;;;19.60;99.90;;;;;;5078900;28;20202;-76